Saint George Island, AK

11:53 PM AKDT on April 26, 2017 (GMT -0800)
Saint George | | Change Station

Elev 125 ft 56.58 °N, 169.66 °W | Updated 1 hour ago

Overcast
Overcast
37 °F
Feels Like 32 °F
N
6
Wind Variable Wind from ENE

Today
High -- | Low -- °F
--% Chance of Precip.
Yesterday
High -- | Low -- °F
Precip. -- in
Pressure 29.51 in
Visibility 10.0 miles
Clouds Few 1300 ft
Mostly Cloudy 2500 ft
Overcast 4100 ft
Windchill 32 °F
Dew Point 33 °F
Humidity 86%
Rainfall 0.01 in
Snow Depth Not available.
7:42 AM 10:51 PM
New Moon, 1% visible
METAR PAPB 270653Z AUTO 06005KT 10SM FEW013 BKN025 OVC041 03/01 A2955 RMK AO2 RAB31E42 SLP993 P0000 T00280006 TSNO
Pressure 29.51 in
Visibility 10.0 miles
Clouds Few 1300 ft
Mostly Cloudy 2500 ft
Overcast 4100 ft
Windchill 32 °F
Dew Point 33 °F
Humidity 86%
Rainfall 0.01 in
Snow Depth Not available.
7:42 AM 10:51 PM
New Moon, 1% visible
METAR PAPB 270653Z AUTO 06005KT 10SM FEW013 BKN025 OVC041 03/01 A2955 RMK AO2 RAB31E42 SLP993 P0000 T00280006 TSNO

Get Severe Weather Alerts

Thanks for signing up!

Be on the lookout for a verification email in your inbox.

You'll start receiving the daily forecast at 8 AM.

×

10-Day Weather Forecast

Almanac

Astronomy

Apr. 26, 2017 Rise Set
Actual Time
Civil Twilight
Nautical Twilight
Astronomical Twilight
Moon
Length of Visible Light
Length of Day
Tomorrow will be .
, % of the Moon is Illuminated

Today's Extremes

State Highs State Lows

Community

WunderPhotos

WunderBlog® & News

Nearby

Air Quality

  Air Quality AQ Index Pollutant
Not available.

Snow Depth

Station Depth Elevation

Earthquake Activity

City Distance Mag. Time & Date
Minimum magnitude displayed is 2.5.

Coastal Water Temperatures

Place Temperature

Stations

Nearby Weather Stations

Station Location Temp. Windchill Dew Point Humidity Wind Precip. Elev Updated Type
                   

Watches & Warnings

There are currently no watches in effect.